Homer, Michigan
Current Conditions -  °F | °C
As of 5:33 PM on Monday 24 Nov 2014 (Local Time) from KRMY Reporting Station
Overcast Overcast  
Wind Chill: -7°   Ceiling: 1600
Heat Index:   Visibility: 10mi
Dew Point: -2°   Wind: 28mph
Humidity: 86%   Direction: 240°WSW
Pressure: 29.49"   Gusts: 36mph
Location:  42.15°N, 84.81°W
Report Text: KRMY 242233Z AUTO 24024G31KT 10SM OVC016 01/M01 A2949 RMK AO2 T00061015
Loading
Personal Weather Stations






























Interactive Weather Map New forecast layout! Learn more

10-Day Weather Forecast

Advertisements
Track Severe Weather on mobile